Live Your Life

Объявление

Информация о пользователе

Привет, Гость! Войдите или зарегистрируйтесь.


Вы здесь » Live Your Life » Неформат


Неформат

Тем 1 страница 30 из 31

Тема Ответов Просмотров Последнее сообщение
9 762 Сегодня 15:19:02  Oxymoron
199 11703 Сегодня 10:27:20  LRS
11 243 16-10-2018 23:37:14  Pa-ku
4 Deviant  переснежник
8 270 16-10-2018 21:11:23  Teacook
175 5123 16-10-2018 17:47:41  Vitaminka
6 Атлантида  Kiros56488123
5 251 16-10-2018 14:40:54  Kiros56488123
7 В шаге от трона  Королевство Камбрия
6 161 16-10-2018 13:43:14  Королевство Камбрия
1 181 15-10-2018 20:25:56  Morgoth
28 811 15-10-2018 10:28:26  до_одури
74 3020 15-10-2018 08:40:05  DeWitt
3 126 15-10-2018 00:44:16  Hurley
12 Nex|t|us  Melinda
8 1061 13-10-2018 20:26:50  Melinda
13 Darkworld  Дымок
0 80 11-10-2018 21:38:18  Дымок
113 4683 09-10-2018 22:17:58  Automation baby
26 1062 09-10-2018 10:11:21  Огнеязыцый
16 blood & water  Aleander
4 246 06-10-2018 13:23:11  Aleander
44 4504 06-10-2018 00:00:27  Prologue
18 Нассау  Летучий Голландец  [ Тема 18 Page 1 Тема 18 Page 2 Тема 18 Page 3 ]
43 2212 05-10-2018 19:23:44  Флинт
16 1102 05-10-2018 12:27:23  Флинт
20 Holy Sh!t  грандоченька смерти
4 196 05-10-2018 00:19:17  грандоченька смерти
21 Tempus Futurum  Jonah
12 435 04-10-2018 11:26:01  Jonah
33 924 03-10-2018 06:27:02  Luiziata
23 Космический ветер  Кот капитана Флинта  [ Тема 23 Page 1 Тема 23 Page 2 ]
29 1403 02-10-2018 07:31:01  Кот капитана Флинта
2 170 29-09-2018 19:35:00  Fireridge
26 870 23-09-2018 12:51:55  Mowin
26 false impulse  aurum seneca
10 293 18-09-2018 21:51:52  aurum seneca
19 426 16-09-2018 18:43:03  Heath
0 109 01-09-2018 05:59:17  Jin Archer
29 Calmsector  banterface
1 150 30-08-2018 21:11:34  banterface
24 1216 22-08-2018 16:01:27  Эстелла Ортега

Вы здесь » Live Your Life » Неформат


Рейтинг форумов | Создать форум бесплатно © 2007–2017 «QuadroSystems» LLC